Time;durP1;ratioP1;P1;durP2;ratioP2;P2;SDS_P1;SDS_P2;PMS_P1;PMS_P2;Temp;Humidity;BMP_temperature;BMP_pressure;BME280_temperature;BME280_humidity;BME280_pressure;Samples;Min_cycle;Max_cycle;Signal;HPM_P1;HPM_P2
2024/01/28 00:04:01;;;;;;;;;;;17.70;55.40;;;;;;10086562;28;94078;-71
2024/01/28 00:09:03;;;;;;;;;;;17.70;55.40;;;;;;10087446;28;93600;-71
2024/01/28 00:14:05;;;;;;;;;;;17.70;55.10;;;;;;10087615;28;93815;-71
2024/01/28 00:19:08;;;;;;;;;;;17.70;54.80;;;;;;10088741;28;92672;-71
2024/01/28 00:24:10;;;;;;;;;;;17.70;54.60;;;;;;10098551;28;94810;-71
2024/01/28 00:29:12;;;;;;;;;;;17.70;54.40;;;;;;10102688;28;94569;-70
2024/01/28 00:34:14;;;;;;;;;;;17.60;54.20;;;;;;10126900;28;95508;-70
2024/01/28 00:39:16;;;;;;;;;;;17.60;54.00;;;;;;10125960;28;92670;-71
2024/01/28 00:44:19;;;;;;;;;;;17.60;53.80;;;;;;10098355;28;95249;-71
2024/01/28 00:49:23;;;;;;;;;;;17.60;53.70;;;;;;10088754;28;94853;-71
2024/01/28 00:54:26;;;;;;;;;;;17.50;54.20;;;;;;10089867;28;94613;-71
2024/01/28 00:59:27;;;;;;;;;;;17.40;54.60;;;;;;10084327;28;94734;-71
2024/01/28 01:04:29;;;;;;;;;;;17.40;54.50;;;;;;10085111;28;93691;-71
2024/01/28 01:09:31;;;;;;;;;;;17.40;54.20;;;;;;10086428;28;92721;-72
2024/01/28 01:14:37;;;;;;;;;;;17.40;54.00;;;;;;10079968;28;93499;-71
2024/01/28 01:19:39;;;;;;;;;;;17.40;53.80;;;;;;10085510;28;94482;-71
2024/01/28 01:24:41;;;;;;;;;;;17.30;53.50;;;;;;10084693;28;96933;-70
2024/01/28 01:29:43;;;;;;;;;;;17.30;53.30;;;;;;10084406;28;94130;-71
2024/01/28 01:34:45;;;;;;;;;;;17.30;53.20;;;;;;10084073;28;94789;-72
2024/01/28 01:39:47;;;;;;;;;;;17.30;52.90;;;;;;10079627;28;94728;-71
2024/01/28 01:44:49;;;;;;;;;;;17.30;53.10;;;;;;10078397;28;97765;-71
2024/01/28 01:49:51;;;;;;;;;;;17.20;53.60;;;;;;10079802;28;94025;-71
2024/01/28 01:54:53;;;;;;;;;;;17.20;53.90;;;;;;10085838;28;93415;-71
2024/01/28 01:59:55;;;;;;;;;;;17.20;53.70;;;;;;10080397;28;92717;-70
2024/01/28 02:04:57;;;;;;;;;;;17.10;53.60;;;;;;10460737;23;97606;-69
2024/01/28 02:09:59;;;;;;;;;;;17.10;53.20;;;;;;10123319;28;94345;-70
2024/01/28 02:15:09;;;;;;;;;;;17.10;53.20;;;;;;10095386;28;95917;-70
2024/01/28 02:20:11;;;;;;;;;;;17.10;53.00;;;;;;10088224;28;94600;-70
2024/01/28 02:25:13;;;;;;;;;;;17.10;52.80;;;;;;10101581;28;94491;-70
2024/01/28 02:30:15;;;;;;;;;;;17.10;52.70;;;;;;10085310;28;93406;-70
2024/01/28 02:35:17;;;;;;;;;;;17.10;52.60;;;;;;10095719;28;94684;-70
2024/01/28 02:40:20;;;;;;;;;;;17.10;52.70;;;;;;10101645;28;93260;-71
2024/01/28 02:45:22;;;;;;;;;;;17.00;53.10;;;;;;10084679;28;92900;-71
2024/01/28 02:50:24;;;;;;;;;;;16.90;53.50;;;;;;10104193;28;93474;-71
2024/01/28 02:55:26;;;;;;;;;;;16.90;53.40;;;;;;10091292;28;93324;-71
2024/01/28 03:00:29;;;;;;;;;;;17.00;53.10;;;;;;10118785;28;94692;-71
2024/01/28 03:05:31;;;;;;;;;;;17.00;53.00;;;;;;10116185;28;96034;-71
2024/01/28 03:10:33;;;;;;;;;;;17.00;52.80;;;;;;10109727;28;93930;-71
2024/01/28 03:15:35;;;;;;;;;;;17.00;52.60;;;;;;10098808;28;93509;-71
2024/01/28 03:20:37;;;;;;;;;;;17.00;52.40;;;;;;10127841;28;94487;-71
2024/01/28 03:25:38;;;;;;;;;;;17.00;52.30;;;;;;10103207;28;93475;-71
2024/01/28 03:30:41;;;;;;;;;;;17.00;52.20;;;;;;10113934;28;94144;-71
2024/01/28 03:35:42;;;;;;;;;;;16.90;52.20;;;;;;10100786;28;93545;-72
2024/01/28 03:40:44;;;;;;;;;;;16.90;52.80;;;;;;10124944;28;93443;-71
2024/01/28 03:45:46;;;;;;;;;;;16.80;53.00;;;;;;10107626;28;93847;-71
2024/01/28 03:50:49;;;;;;;;;;;16.80;52.80;;;;;;10115436;28;95489;-71
2024/01/28 03:55:51;;;;;;;;;;;16.90;52.70;;;;;;10108658;28;95989;-70
2024/01/28 04:00:53;;;;;;;;;;;16.80;52.40;;;;;;10096213;28;94503;-70
2024/01/28 04:05:55;;;;;;;;;;;16.80;52.20;;;;;;10112042;28;94045;-71
2024/01/28 04:10:57;;;;;;;;;;;16.80;52.10;;;;;;10116227;28;94662;-70
2024/01/28 04:15:59;;;;;;;;;;;16.80;51.90;;;;;;10104311;28;95185;-71
2024/01/28 04:21:01;;;;;;;;;;;16.80;51.80;;;;;;10103182;28;94214;-69
2024/01/28 04:26:02;;;;;;;;;;;16.70;51.60;;;;;;10134741;28;93536;-70
2024/01/28 04:31:04;;;;;;;;;;;16.70;51.90;;;;;;10107721;28;93071;-71
2024/01/28 04:36:06;;;;;;;;;;;16.70;52.50;;;;;;10112890;28;93642;-70
2024/01/28 04:41:09;;;;;;;;;;;16.60;52.50;;;;;;10104551;28;93738;-71
2024/01/28 04:46:13;;;;;;;;;;;16.60;52.30;;;;;;10107007;28;95854;-71
2024/01/28 04:51:15;;;;;;;;;;;16.60;52.10;;;;;;10117123;28;94525;-71
2024/01/28 04:56:17;;;;;;;;;;;16.60;52.00;;;;;;10118322;28;93741;-71
2024/01/28 05:01:19;;;;;;;;;;;16.60;51.90;;;;;;10115245;28;94193;-72
2024/01/28 05:06:21;;;;;;;;;;;16.60;51.70;;;;;;10105931;28;93962;-72
2024/01/28 05:11:23;;;;;;;;;;;16.60;51.60;;;;;;10108231;28;93409;-72
2024/01/28 05:16:25;;;;;;;;;;;16.60;51.40;;;;;;10118013;28;92902;-70
2024/01/28 05:21:27;;;;;;;;;;;16.60;51.30;;;;;;10124190;28;92492;-71
2024/01/28 05:26:32;;;;;;;;;;;16.50;51.70;;;;;;10129030;28;93530;-71
2024/01/28 05:31:33;;;;;;;;;;;16.50;52.20;;;;;;10116957;28;93487;-73
2024/01/28 05:36:35;;;;;;;;;;;16.40;52.20;;;;;;10093286;28;96239;-71
2024/01/28 05:41:37;;;;;;;;;;;16.40;52.00;;;;;;10107547;28;93597;-72
2024/01/28 05:46:39;;;;;;;;;;;16.50;52.40;;;;;;10095737;28;93467;-71
2024/01/28 05:51:41;;;;;;;;;;;16.70;52.30;;;;;;10096935;28;93585;-71
2024/01/28 05:56:43;;;;;;;;;;;17.10;52.00;;;;;;10098921;28;93433;-71
2024/01/28 06:01:45;;;;;;;;;;;17.40;51.50;;;;;;10110776;28;94792;-71
2024/01/28 06:06:47;;;;;;;;;;;17.70;50.90;;;;;;10096179;28;94688;-71
2024/01/28 06:11:49;;;;;;;;;;;17.90;50.30;;;;;;10107072;28;92270;-71
2024/01/28 06:16:51;;;;;;;;;;;18.10;50.10;;;;;;10118464;28;94133;-71
2024/01/28 06:21:55;;;;;;;;;;;18.20;49.90;;;;;;10106496;28;96102;-70
2024/01/28 06:26:57;;;;;;;;;;;18.50;49.60;;;;;;10114387;28;95718;-69
2024/01/28 06:31:58;;;;;;;;;;;18.50;49.40;;;;;;10109221;28;93700;-70
2024/01/28 06:37:00;;;;;;;;;;;18.50;49.40;;;;;;10104462;28;94000;-70
2024/01/28 06:42:02;;;;;;;;;;;18.50;49.40;;;;;;10104659;28;94464;-70
2024/01/28 06:47:06;;;;;;;;;;;18.40;49.50;;;;;;10114653;28;94160;-70
2024/01/28 06:52:08;;;;;;;;;;;18.30;49.70;;;;;;10096073;28;93794;-71
2024/01/28 06:57:10;;;;;;;;;;;18.20;49.90;;;;;;10111005;28;93999;-70
2024/01/28 07:02:12;;;;;;;;;;;18.10;50.20;;;;;;10125667;28;92785;-70
2024/01/28 07:07:14;;;;;;;;;;;18.00;50.30;;;;;;10105398;28;93450;-71
2024/01/28 07:12:16;;;;;;;;;;;17.90;50.60;;;;;;10098054;28;93850;-71
2024/01/28 07:17:21;;;;;;;;;;;17.90;51.10;;;;;;10110416;28;95833;-71
2024/01/28 07:22:23;;;;;;;;;;;18.00;51.10;;;;;;10107527;28;93491;-69
2024/01/28 07:27:25;;;;;;;;;;;18.10;51.00;;;;;;10110061;28;92994;-70
2024/01/28 07:32:27;;;;;;;;;;;18.40;50.90;;;;;;10092408;28;94452;-70
2024/01/28 07:37:29;;;;;;;;;;;18.50;50.60;;;;;;10095333;28;93358;-71
2024/01/28 07:42:31;;;;;;;;;;;18.60;50.30;;;;;;10120322;28;94399;-70
2024/01/28 07:47:33;;;;;;;;;;;18.50;50.30;;;;;;10105216;28;94389;-70
2024/01/28 07:52:35;;;;;;;;;;;18.50;50.40;;;;;;10126419;28;92939;-70
2024/01/28 07:57:37;;;;;;;;;;;18.50;50.70;;;;;;10107425;28;94567;-70
2024/01/28 08:02:39;;;;;;;;;;;18.50;50.60;;;;;;10116735;28;93611;-71
2024/01/28 08:07:41;;;;;;;;;;;18.50;50.50;;;;;;10116223;28;95578;-71
2024/01/28 08:12:43;;;;;;;;;;;18.50;50.70;;;;;;10114464;28;94238;-71
2024/01/28 08:17:45;;;;;;;;;;;18.40;50.80;;;;;;10106082;28;94198;-70
2024/01/28 08:22:47;;;;;;;;;;;18.40;53.30;;;;;;10104763;28;93459;-70
2024/01/28 08:27:49;;;;;;;;;;;18.40;53.90;;;;;;10112536;28;93906;-71
2024/01/28 08:32:51;;;;;;;;;;;18.40;52.80;;;;;;10109718;28;93743;-69
2024/01/28 08:37:53;;;;;;;;;;;18.40;53.00;;;;;;10105542;28;93421;-67
2024/01/28 08:42:55;;;;;;;;;;;18.30;53.10;;;;;;10103330;28;93230;-68
2024/01/28 08:47:57;;;;;;;;;;;18.30;53.40;;;;;;10096043;28;94805;-68
2024/01/28 08:52:59;;;;;;;;;;;18.20;53.50;;;;;;10105599;28;93556;-68
2024/01/28 08:58:01;;;;;;;;;;;18.10;54.20;;;;;;10098408;28;95826;-69
2024/01/28 09:03:04;;;;;;;;;;;18.00;54.00;;;;;;10106270;28;94730;-68
2024/01/28 09:08:06;;;;;;;;;;;18.00;53.90;;;;;;10105462;28;93365;-68
2024/01/28 09:13:08;;;;;;;;;;;17.90;54.00;;;;;;10104790;28;94446;-69
2024/01/28 09:18:10;;;;;;;;;;;17.80;54.10;;;;;;10106272;28;93456;-68
2024/01/28 09:23:14;;;;;;;;;;;17.70;54.20;;;;;;10115721;28;94562;-69
2024/01/28 09:28:16;;;;;;;;;;;17.70;54.10;;;;;;10095884;28;92835;-68
2024/01/28 09:33:18;;;;;;;;;;;17.60;54.20;;;;;;10124135;28;93729;-69
2024/01/28 09:38:21;;;;;;;;;;;17.60;54.30;;;;;;10102445;28;93780;-69
2024/01/28 09:43:29;;;;;;;;;;;17.60;54.40;;;;;;10121313;28;93579;-68
2024/01/28 09:48:31;;;;;;;;;;;17.50;54.30;;;;;;10107130;28;95869;-68
2024/01/28 09:53:33;;;;;;;;;;;17.50;54.40;;;;;;10107728;28;93793;-68
2024/01/28 09:58:34;;;;;;;;;;;17.50;54.40;;;;;;10105049;28;94403;-68
2024/01/28 10:03:36;;;;;;;;;;;17.40;54.40;;;;;;10110176;28;93451;-68
2024/01/28 10:08:40;;;;;;;;;;;17.40;54.50;;;;;;10116716;28;93342;-68
2024/01/28 10:13:46;;;;;;;;;;;17.40;54.50;;;;;;10100316;28;93784;-68
2024/01/28 10:18:48;;;;;;;;;;;17.30;54.50;;;;;;10117311;28;93491;-68
2024/01/28 10:23:51;;;;;;;;;;;17.30;54.50;;;;;;10100999;28;93779;-68
2024/01/28 10:28:52;;;;;;;;;;;17.20;54.60;;;;;;10114428;28;93196;-68
2024/01/28 10:33:54;;;;;;;;;;;17.20;54.70;;;;;;10102856;28;93811;-68
2024/01/28 10:38:59;;;;;;;;;;;17.10;54.80;;;;;;10097048;28;96403;-69
2024/01/28 10:44:08;;;;;;;;;;;17.20;54.80;;;;;;10087018;28;93730;-68
2024/01/28 10:49:10;;;;;;;;;;;17.30;54.70;;;;;;10109433;28;94146;-68
2024/01/28 10:54:13;;;;;;;;;;;17.50;54.30;;;;;;10099946;28;93350;-68
2024/01/28 10:59:16;;;;;;;;;;;17.80;53.90;;;;;;10098319;28;93980;-68
2024/01/28 11:04:17;;;;;;;;;;;18.00;53.30;;;;;;10104159;28;94434;-68
2024/01/28 11:09:20;;;;;;;;;;;18.10;52.90;;;;;;10093398;28;93775;-68
2024/01/28 11:14:24;;;;;;;;;;;18.30;52.80;;;;;;10107912;28;93673;-68
2024/01/28 11:19:29;;;;;;;;;;;18.40;52.40;;;;;;10108305;28;94506;-71
2024/01/28 11:24:44;;;;;;;;;;;18.40;52.20;;;;;;10118707;28;95056;-68
2024/01/28 11:29:47;;;;;;;;;;;18.40;52.20;;;;;;10092906;28;96258;-69
2024/01/28 11:34:50;;;;;;;;;;;18.30;52.10;;;;;;10116392;28;93544;-68
2024/01/28 11:39:55;;;;;;;;;;;18.30;52.10;;;;;;10100777;28;94423;-68
2024/01/28 11:45:00;;;;;;;;;;;18.20;52.30;;;;;;10102061;28;94527;-67
2024/01/28 11:50:02;;;;;;;;;;;18.10;52.30;;;;;;10115663;28;94410;-68
2024/01/28 11:55:10;;;;;;;;;;;18.00;52.40;;;;;;10111804;28;94470;-69
2024/01/28 12:00:13;;;;;;;;;;;17.90;52.60;;;;;;10105351;28;93511;-68
2024/01/28 12:05:15;;;;;;;;;;;17.90;52.80;;;;;;10131309;28;94580;-69
2024/01/28 12:10:17;;;;;;;;;;;17.90;53.10;;;;;;10112561;28;93045;-68
2024/01/28 12:15:19;;;;;;;;;;;17.90;53.00;;;;;;10121012;28;95172;-68
2024/01/28 12:20:22;;;;;;;;;;;17.90;52.90;;;;;;10112536;28;96286;-68
2024/01/28 12:25:24;;;;;;;;;;;18.00;53.00;;;;;;10109083;28;93366;-69
2024/01/28 12:30:26;;;;;;;;;;;17.90;53.00;;;;;;10105201;28;92869;-68
2024/01/28 12:35:28;;;;;;;;;;;18.00;53.20;;;;;;10095447;28;93672;-68
2024/01/28 12:40:30;;;;;;;;;;;18.00;53.10;;;;;;10103145;28;94402;-68
2024/01/28 12:45:32;;;;;;;;;;;18.00;53.00;;;;;;10105891;28;94167;-68
2024/01/28 12:50:34;;;;;;;;;;;18.00;53.00;;;;;;10104244;28;94264;-68
2024/01/28 12:55:35;;;;;;;;;;;18.00;53.30;;;;;;10103924;28;93934;-69
2024/01/28 13:00:38;;;;;;;;;;;18.10;53.20;;;;;;10113746;28;94968;-69
2024/01/28 13:05:40;;;;;;;;;;;18.10;54.10;;;;;;10111497;28;94454;-69
2024/01/28 13:10:42;;;;;;;;;;;18.10;53.10;;;;;;10117047;28;97119;-69
2024/01/28 13:15:45;;;;;;;;;;;18.10;53.20;;;;;;10122965;28;92634;-68
2024/01/28 13:20:47;;;;;;;;;;;18.10;53.40;;;;;;10130877;28;93475;-68
2024/01/28 13:25:49;;;;;;;;;;;18.20;53.30;;;;;;10138933;28;93415;-68
2024/01/28 13:30:51;;;;;;;;;;;18.20;53.20;;;;;;10116646;28;95200;-69
2024/01/28 13:35:53;;;;;;;;;;;18.20;53.20;;;;;;10114631;28;93975;-68
2024/01/28 13:40:55;;;;;;;;;;;18.20;53.40;;;;;;10116575;28;94881;-67
2024/01/28 13:45:57;;;;;;;;;;;18.20;53.80;;;;;;10110649;28;93756;-68
2024/01/28 13:50:59;;;;;;;;;;;18.40;54.20;;;;;;10118128;28;95078;-67
2024/01/28 13:56:02;;;;;;;;;;;18.70;54.20;;;;;;10109883;28;94058;-68
2024/01/28 14:01:04;;;;;;;;;;;19.00;54.10;;;;;;10101288;28;95992;-69
2024/01/28 14:06:06;;;;;;;;;;;19.20;53.70;;;;;;10113678;28;93564;-68
2024/01/28 14:11:08;;;;;;;;;;;19.30;53.60;;;;;;10099544;28;94258;-68
2024/01/28 14:16:10;;;;;;;;;;;19.50;53.40;;;;;;10105425;28;94181;-67
2024/01/28 14:21:12;;;;;;;;;;;19.70;53.20;;;;;;10113766;28;94740;-68
2024/01/28 14:26:14;;;;;;;;;;;19.80;53.00;;;;;;10098505;28;94745;-67
2024/01/28 14:31:16;;;;;;;;;;;19.80;53.00;;;;;;10099983;28;94491;-67
2024/01/28 14:36:17;;;;;;;;;;;19.80;53.20;;;;;;10112393;28;93833;-68
2024/01/28 14:41:20;;;;;;;;;;;19.70;53.60;;;;;;10105581;28;94310;-69
2024/01/28 14:46:22;;;;;;;;;;;19.50;53.80;;;;;;10112251;28;94342;-68
2024/01/28 14:51:23;;;;;;;;;;;19.50;54.40;;;;;;10102870;28;96426;-68
2024/01/28 14:56:25;;;;;;;;;;;19.30;54.60;;;;;;10101874;28;93718;-68
2024/01/28 15:01:28;;;;;;;;;;;19.40;55.00;;;;;;10110374;28;93920;-69
2024/01/28 15:06:29;;;;;;;;;;;19.60;55.00;;;;;;10111478;28;93456;-68
2024/01/28 15:11:34;;;;;;;;;;;19.80;54.70;;;;;;10106821;28;94135;-69
2024/01/28 15:16:40;;;;;;;;;;;20.00;54.50;;;;;;10130549;28;93767;-67
2024/01/28 15:21:41;;;;;;;;;;;20.00;54.40;;;;;;10117457;28;93771;-68
2024/01/28 15:26:43;;;;;;;;;;;19.90;54.40;;;;;;10137073;28;92803;-67
2024/01/28 15:31:45;;;;;;;;;;;19.80;54.70;;;;;;10110610;28;93505;-68
2024/01/28 15:36:47;;;;;;;;;;;19.70;55.10;;;;;;10112496;28;94452;-70
2024/01/28 15:41:49;;;;;;;;;;;19.60;55.40;;;;;;10118517;28;95953;-70
2024/01/28 15:46:52;;;;;;;;;;;19.40;55.60;;;;;;10102831;28;93520;-69
2024/01/28 15:51:54;;;;;;;;;;;19.20;55.60;;;;;;10106119;28;94423;-71
2024/01/28 15:56:56;;;;;;;;;;;19.20;56.00;;;;;;10120934;28;93740;-69
2024/01/28 16:01:58;;;;;;;;;;;19.20;56.00;;;;;;10107066;28;93146;-68
2024/01/28 16:07:00;;;;;;;;;;;19.30;56.10;;;;;;10100877;28;94461;-68
2024/01/28 16:12:01;;;;;;;;;;;19.20;56.20;;;;;;10118931;28;94203;-69
2024/01/28 16:17:03;;;;;;;;;;;19.20;56.40;;;;;;10112911;28;92963;-69
2024/01/28 16:22:05;;;;;;;;;;;19.20;56.70;;;;;;10106541;28;93833;-70
2024/01/28 16:27:07;;;;;;;;;;;19.20;57.90;;;;;;10116255;28;93659;-69
2024/01/28 16:32:09;;;;;;;;;;;19.20;57.00;;;;;;10099825;28;96008;-69
2024/01/28 16:37:11;;;;;;;;;;;19.20;60.60;;;;;;10106625;28;93918;-68
2024/01/28 16:42:13;;;;;;;;;;;19.20;60.70;;;;;;10103043;28;94415;-71
2024/01/28 16:47:15;;;;;;;;;;;19.20;59.20;;;;;;10109854;28;95851;-71
2024/01/28 16:52:17;;;;;;;;;;;19.30;58.40;;;;;;10112548;28;94460;-69
2024/01/28 16:57:22;;;;;;;;;;;19.30;58.10;;;;;;10107902;28;94584;-72
2024/01/28 17:02:26;;;;;;;;;;;19.30;58.00;;;;;;10108830;28;94264;-70
2024/01/28 17:07:28;;;;;;;;;;;19.30;58.10;;;;;;10101379;28;92697;-71
2024/01/28 17:12:29;;;;;;;;;;;19.40;57.90;;;;;;10111204;28;93354;-69
2024/01/28 17:17:31;;;;;;;;;;;19.40;58.40;;;;;;10112827;28;92903;-70
2024/01/28 17:22:33;;;;;;;;;;;19.30;57.90;;;;;;10116823;28;96728;-70
2024/01/28 17:27:35;;;;;;;;;;;19.30;57.80;;;;;;10116686;28;94417;-69
2024/01/28 17:32:38;;;;;;;;;;;19.30;57.60;;;;;;10110785;28;94312;-69
2024/01/28 17:37:41;;;;;;;;;;;19.30;57.30;;;;;;10122307;28;93952;-69
2024/01/28 17:42:43;;;;;;;;;;;19.30;57.20;;;;;;10111903;28;94053;-70
2024/01/28 17:47:45;;;;;;;;;;;19.20;57.10;;;;;;10112818;28;94128;-70
2024/01/28 17:52:56;;;;;;;;;;;19.30;57.30;;;;;;10104562;28;93298;-69
2024/01/28 17:57:57;;;;;;;;;;;19.40;57.00;;;;;;10106017;28;93244;-69
2024/01/28 18:02:59;;;;;;;;;;;19.30;56.80;;;;;;10114650;28;93699;-69
2024/01/28 18:08:01;;;;;;;;;;;19.30;56.80;;;;;;10112586;28;94572;-70
2024/01/28 18:13:04;;;;;;;;;;;19.20;56.90;;;;;;10100732;28;96826;-69
2024/01/28 18:18:06;;;;;;;;;;;19.30;56.90;;;;;;10106660;28;96888;-71
2024/01/28 18:23:08;;;;;;;;;;;19.30;56.70;;;;;;10106860;28;93815;-70
2024/01/28 18:28:10;;;;;;;;;;;19.30;56.70;;;;;;10100598;28;95100;-71
2024/01/28 18:33:12;;;;;;;;;;;19.30;56.70;;;;;;10104133;28;93412;-68
2024/01/28 18:38:14;;;;;;;;;;;19.20;56.80;;;;;;10110751;28;94457;-68
2024/01/28 18:43:16;;;;;;;;;;;19.30;56.70;;;;;;10108975;28;94143;-68
2024/01/28 18:48:18;;;;;;;;;;;19.30;56.70;;;;;;10099367;28;94006;-68
2024/01/28 18:53:22;;;;;;;;;;;19.30;56.70;;;;;;10130764;28;94874;-65
2024/01/28 18:58:24;;;;;;;;;;;19.20;56.40;;;;;;10105531;28;93424;-67
2024/01/28 19:03:26;;;;;;;;;;;19.20;56.50;;;;;;10101550;28;95814;-69
2024/01/28 19:08:28;;;;;;;;;;;19.30;57.30;;;;;;10109867;28;95786;-68
2024/01/28 19:13:30;;;;;;;;;;;19.40;57.10;;;;;;10115943;28;93773;-69
2024/01/28 19:18:32;;;;;;;;;;;19.30;56.70;;;;;;10097919;28;94085;-68
2024/01/28 19:23:34;;;;;;;;;;;19.30;56.70;;;;;;10110738;28;93567;-68
2024/01/28 19:28:36;;;;;;;;;;;19.40;56.50;;;;;;10105042;28;94447;-68
2024/01/28 19:33:38;;;;;;;;;;;19.50;56.10;;;;;;10107921;28;93673;-68
2024/01/28 19:38:40;;;;;;;;;;;19.50;56.00;;;;;;10116709;28;94502;-68
2024/01/28 19:43:42;;;;;;;;;;;19.50;55.80;;;;;;10123797;28;93776;-68
2024/01/28 19:48:44;;;;;;;;;;;19.50;55.70;;;;;;10104852;28;96596;-66
2024/01/28 19:53:46;;;;;;;;;;;19.30;55.60;;;;;;10106939;28;95539;-67
2024/01/28 19:58:49;;;;;;;;;;;19.20;55.60;;;;;;10109647;28;93249;-67
2024/01/28 20:03:51;;;;;;;;;;;19.30;55.60;;;;;;10116928;28;93459;-68
2024/01/28 20:08:53;;;;;;;;;;;19.30;56.20;;;;;;10110758;28;93460;-68
2024/01/28 20:13:55;;;;;;;;;;;19.50;55.80;;;;;;10118213;28;93276;-67
2024/01/28 20:19:00;;;;;;;;;;;19.70;55.30;;;;;;10118276;28;94377;-68
2024/01/28 20:24:02;;;;;;;;;;;19.80;54.90;;;;;;10117771;28;93526;-67
2024/01/28 20:29:04;;;;;;;;;;;19.80;54.80;;;;;;10108033;28;93851;-68
2024/01/28 20:34:06;;;;;;;;;;;19.70;54.70;;;;;;10118478;28;93901;-69
2024/01/28 20:39:08;;;;;;;;;;;19.70;54.70;;;;;;10111610;28;93457;-68
2024/01/28 20:44:10;;;;;;;;;;;19.50;54.70;;;;;;10100447;28;96831;-68
2024/01/28 20:49:12;;;;;;;;;;;19.40;54.90;;;;;;10107249;28;93457;-68
2024/01/28 20:54:14;;;;;;;;;;;19.30;55.90;;;;;;10112181;28;93973;-68
2024/01/28 20:59:16;;;;;;;;;;;19.30;55.30;;;;;;10100697;28;95075;-68
2024/01/28 21:04:18;;;;;;;;;;;19.40;55.20;;;;;;10099676;28;95293;-68
2024/01/28 21:09:20;;;;;;;;;;;19.40;55.20;;;;;;10122252;28;94030;-67
2024/01/28 21:14:22;;;;;;;;;;;19.30;55.10;;;;;;10110645;28;94086;-68
2024/01/28 21:19:24;;;;;;;;;;;19.20;55.10;;;;;;10111127;28;92166;-68
2024/01/28 21:24:32;;;;;;;;;;;19.10;55.20;;;;;;10109913;28;113830;-68
2024/01/28 21:29:34;;;;;;;;;;;19.00;55.30;;;;;;10110081;28;94368;-68
2024/01/28 21:34:36;;;;;;;;;;;18.90;55.70;;;;;;10126397;28;96783;-68
2024/01/28 21:39:42;;;;;;;;;;;18.90;55.70;;;;;;10112709;28;93476;-68
2024/01/28 21:44:44;;;;;;;;;;;18.80;55.60;;;;;;10106598;28;94444;-68
2024/01/28 21:49:46;;;;;;;;;;;18.70;55.70;;;;;;10120574;28;93986;-68
2024/01/28 21:54:48;;;;;;;;;;;18.60;55.60;;;;;;10106862;28;94036;-69
2024/01/28 21:59:50;;;;;;;;;;;18.60;55.70;;;;;;10098310;28;94939;-69
2024/01/28 22:04:52;;;;;;;;;;;18.50;55.70;;;;;;10104251;28;93523;-66
2024/01/28 22:09:54;;;;;;;;;;;18.40;55.60;;;;;;10102611;28;93836;-69
2024/01/28 22:14:56;;;;;;;;;;;18.40;55.60;;;;;;10118618;28;93583;-68
2024/01/28 22:19:58;;;;;;;;;;;18.30;55.70;;;;;;10111050;28;94565;-69
2024/01/28 22:25:00;;;;;;;;;;;18.30;55.50;;;;;;10112477;28;96764;-68
2024/01/28 22:30:03;;;;;;;;;;;18.20;55.60;;;;;;10122914;28;94770;-69
2024/01/28 22:35:07;;;;;;;;;;;18.20;55.50;;;;;;10109010;28;93427;-69
2024/01/28 22:40:10;;;;;;;;;;;18.20;55.50;;;;;;10109342;28;94967;-69
2024/01/28 22:45:13;;;;;;;;;;;18.10;55.50;;;;;;10093882;28;94566;-69
2024/01/28 22:50:17;;;;;;;;;;;18.10;55.50;;;;;;10109422;28;93496;-69
2024/01/28 22:55:19;;;;;;;;;;;18.00;55.30;;;;;;10109898;28;93588;-68
2024/01/28 23:00:26;;;;;;;;;;;18.00;55.40;;;;;;10113103;28;93241;-68
2024/01/28 23:05:29;;;;;;;;;;;18.00;55.40;;;;;;10093137;28;93448;-70
2024/01/28 23:10:33;;;;;;;;;;;17.90;55.70;;;;;;10099148;28;93613;-69
2024/01/28 23:15:35;;;;;;;;;;;17.80;55.50;;;;;;10117737;28;96527;-69
2024/01/28 23:20:37;;;;;;;;;;;17.80;55.10;;;;;;10108479;28;93114;-69
2024/01/28 23:25:40;;;;;;;;;;;17.80;54.90;;;;;;10108441;28;93446;-69
2024/01/28 23:30:44;;;;;;;;;;;17.70;54.60;;;;;;10118414;28;93609;-66
2024/01/28 23:35:46;;;;;;;;;;;17.70;54.20;;;;;;10116158;28;93643;-68
2024/01/28 23:40:48;;;;;;;;;;;17.70;54.10;;;;;;10110721;28;94532;-68
2024/01/28 23:45:50;;;;;;;;;;;17.70;53.80;;;;;;10126219;28;94178;-68
2024/01/28 23:50:52;;;;;;;;;;;17.70;53.60;;;;;;10132471;28;93713;-68
2024/01/28 23:55:54;;;;;;;;;;;17.60;53.50;;;;;;10117514;28;94112;-67
